createdAt,value
2023-04-08T00:01:20.526Z,3.24
2023-04-08T00:03:50.464Z,3.28
2023-04-08T00:06:21.016Z,3.31
2023-04-08T00:08:49.682Z,3.34
2023-04-08T00:11:18.093Z,3.35
2023-04-08T00:13:49.980Z,3.36
2023-04-08T00:16:18.684Z,3.38
2023-04-08T00:18:47.943Z,3.39
2023-04-08T00:21:21.281Z,3.37
2023-04-08T00:23:50.435Z,3.35
2023-04-08T00:26:18.680Z,3.30
2023-04-08T00:28:49.036Z,3.23
2023-04-08T00:31:17.423Z,3.17
2023-04-08T00:33:46.402Z,3.12
2023-04-08T00:44:14.798Z,3.12
2023-04-08T00:46:42.194Z,3.15
2023-04-08T00:49:09.792Z,3.18
2023-04-08T00:51:36.678Z,3.18
2023-04-08T00:54:04.290Z,3.19
2023-04-08T00:56:32.121Z,3.18
2023-04-08T00:58:59.777Z,3.13
2023-04-08T01:01:45.260Z,3.07
2023-04-08T01:04:29.652Z,3.01
2023-04-08T01:07:13.537Z,2.95
2023-04-08T01:09:54.844Z,2.91
2023-04-08T01:12:28.476Z,2.88
2023-04-08T01:15:00.958Z,2.86
2023-04-08T01:17:28.501Z,2.85
2023-04-08T01:19:56.616Z,2.85
2023-04-08T01:22:42.597Z,2.86
2023-04-08T01:25:16.898Z,2.86
2023-04-08T01:27:43.991Z,2.87
2023-04-08T01:30:11.594Z,2.86
2023-04-08T01:32:38.300Z,2.86
2023-04-08T01:35:05.678Z,2.86
2023-04-08T01:37:33.144Z,2.86
2023-04-08T01:40:00.556Z,2.86
2023-04-08T01:42:28.241Z,2.85
2023-04-08T01:44:55.701Z,2.83
2023-04-08T01:47:22.439Z,2.79
2023-04-08T01:49:50.011Z,2.73
2023-04-08T01:52:17.258Z,2.67
2023-04-08T01:54:45.466Z,2.65
2023-04-08T01:57:15.157Z,2.63
2023-04-08T01:59:41.828Z,2.63
2023-04-08T02:02:08.746Z,2.61
2023-04-08T02:04:35.901Z,2.60
2023-04-08T02:07:02.950Z,2.59
2023-04-08T02:09:29.995Z,2.61
2023-04-08T02:11:57.518Z,2.61
2023-04-08T02:14:25.750Z,2.62
2023-04-08T02:16:55.749Z,2.60
2023-04-08T02:19:29.019Z,2.59
2023-04-08T02:22:06.108Z,2.57
2023-04-08T02:24:33.637Z,2.54
2023-04-08T02:27:00.636Z,2.54
2023-04-08T02:29:27.284Z,2.55
2023-04-08T02:31:55.758Z,2.57
2023-04-08T02:34:22.722Z,2.59
2023-04-08T02:36:50.596Z,2.60
2023-04-08T02:39:18.975Z,2.60
2023-04-08T02:41:48.286Z,2.61
2023-04-08T02:44:15.129Z,2.60
2023-04-08T02:46:42.807Z,2.58
2023-04-08T02:49:09.743Z,2.57
2023-04-08T02:51:36.743Z,2.56
2023-04-08T02:54:07.776Z,2.56
2023-04-08T02:56:34.906Z,2.57
2023-04-08T02:59:01.568Z,2.57
2023-04-08T03:01:28.364Z,2.58
2023-04-08T03:03:56.419Z,2.59
2023-04-08T03:08:22.515Z,2.63
2023-04-08T03:10:51.106Z,2.62
2023-04-08T03:13:19.908Z,2.65
2023-04-08T03:15:48.408Z,2.67
2023-04-08T03:18:17.838Z,2.69
2023-04-08T03:20:46.093Z,2.69
2023-04-08T03:23:14.394Z,2.69
2023-04-08T03:25:42.965Z,2.70
2023-04-08T03:28:11.227Z,2.73
2023-04-08T03:30:39.544Z,2.76
2023-04-08T03:33:10.163Z,2.80
2023-04-08T03:35:39.110Z,2.83
2023-04-08T03:38:07.689Z,2.83
2023-04-08T03:40:36.066Z,2.80
2023-04-08T03:43:06.708Z,2.80
2023-04-08T03:45:35.118Z,2.81
2023-04-08T03:48:04.401Z,2.82
2023-04-08T03:50:32.615Z,2.85
2023-04-08T03:53:01.607Z,2.87
2023-04-08T03:55:29.782Z,2.89
2023-04-08T03:57:58.790Z,2.90
2023-04-08T04:00:27.174Z,2.91
2023-04-08T04:02:56.593Z,2.92
2023-04-08T04:05:25.422Z,2.93
2023-04-08T04:07:54.085Z,2.93
2023-04-08T04:10:22.756Z,2.94
2023-04-08T04:12:51.143Z,2.96
2023-04-08T04:15:27.909Z,2.96
2023-04-08T04:17:57.152Z,2.96
2023-04-08T04:20:26.075Z,2.97
2023-04-08T04:22:55.359Z,2.97
2023-04-08T04:25:23.980Z,2.99
2023-04-08T04:27:59.182Z,3.01
2023-04-08T04:30:32.040Z,3.03
2023-04-08T04:33:06.120Z,3.03
2023-04-08T04:35:34.361Z,3.03
2023-04-08T04:38:03.115Z,3.03
2023-04-08T04:40:31.823Z,3.03
2023-04-08T04:42:59.929Z,3.02
2023-04-08T04:45:31.217Z,3.01
2023-04-08T04:48:00.340Z,3.03
2023-04-08T04:50:28.771Z,3.06
2023-04-08T04:53:03.154Z,3.11
2023-04-08T04:55:32.257Z,3.16
2023-04-08T04:58:00.410Z,3.22
2023-04-08T05:00:28.901Z,3.26
2023-04-08T05:02:58.220Z,3.30
2023-04-08T05:05:26.714Z,3.35
2023-04-08T05:07:56.879Z,3.41
2023-04-08T05:10:25.492Z,3.47
2023-04-08T05:12:58.410Z,3.52
2023-04-08T05:15:26.943Z,3.58
2023-04-08T05:17:56.585Z,3.64
2023-04-08T05:20:24.728Z,3.71
2023-04-08T05:22:56.307Z,3.77
2023-04-08T05:25:24.482Z,3.84
2023-04-08T05:27:52.947Z,3.93
2023-04-08T05:30:21.169Z,4.00
2023-04-08T05:32:50.961Z,4.07
2023-04-08T05:35:19.029Z,4.15
2023-04-08T05:37:47.124Z,4.24
2023-04-08T05:40:15.327Z,4.31
2023-04-08T05:42:43.820Z,4.38
2023-04-08T05:45:11.864Z,4.43
2023-04-08T05:47:40.268Z,4.48
2023-04-08T05:50:09.568Z,4.53
2023-04-08T05:52:37.849Z,4.60
2023-04-08T05:55:06.639Z,4.63
2023-04-08T05:57:36.246Z,4.66
2023-04-08T06:00:08.735Z,4.70
2023-04-08T06:02:39.406Z,4.76
2023-04-08T06:05:08.819Z,4.81
2023-04-08T06:07:37.269Z,4.86
2023-04-08T06:10:07.269Z,4.92
2023-04-08T06:12:39.384Z,4.93
2023-04-08T06:15:08.173Z,4.93
2023-04-08T06:17:37.447Z,4.93
2023-04-08T06:20:06.669Z,4.95
2023-04-08T06:22:38.104Z,5.01
2023-04-08T06:25:07.271Z,5.07
2023-04-08T06:27:36.245Z,5.14
2023-04-08T06:30:11.747Z,5.17
2023-04-08T06:32:40.974Z,5.19
2023-04-08T06:35:09.182Z,5.21
2023-04-08T06:37:38.929Z,5.26
2023-04-08T06:40:07.822Z,5.29
2023-04-08T06:42:38.459Z,5.34
2023-04-08T06:45:11.384Z,5.42
2023-04-08T06:47:40.474Z,5.48
2023-04-08T06:50:09.299Z,5.56
2023-04-08T06:52:37.382Z,5.61
2023-04-08T06:55:06.401Z,5.63
2023-04-08T06:57:34.400Z,5.62
2023-04-08T07:00:02.888Z,5.58
2023-04-08T07:02:35.057Z,5.51
2023-04-08T07:05:04.095Z,5.42
2023-04-08T07:07:32.477Z,5.36
2023-04-08T15:26:37.371Z,9.47
2023-04-08T15:29:06.616Z,9.42
2023-04-08T15:31:35.339Z,9.41
2023-04-08T15:34:03.745Z,9.39
2023-04-08T15:36:32.668Z,9.36
2023-04-08T15:39:01.051Z,9.33
2023-04-08T15:41:30.065Z,9.25
2023-04-08T15:43:58.251Z,9.14
2023-04-08T15:54:05.774Z,8.75
2023-04-08T15:56:33.905Z,8.63
2023-04-08T15:59:03.024Z,8.55
2023-04-08T16:01:32.605Z,8.47
2023-04-08T16:04:02.634Z,8.38
2023-04-08T16:06:31.420Z,8.30
2023-04-08T16:09:00.276Z,8.22
2023-04-08T16:11:36.046Z,8.15
2023-04-08T16:14:07.006Z,8.09
2023-04-08T16:16:35.543Z,8.05
2023-04-08T16:19:03.910Z,8.01
2023-04-08T16:21:31.945Z,7.98
2023-04-08T16:24:01.660Z,7.93
2023-04-08T16:26:31.295Z,7.90
2023-04-08T16:28:59.801Z,7.85
2023-04-08T16:31:28.643Z,7.82
2023-04-08T16:33:57.011Z,7.78
2023-04-08T16:36:25.263Z,7.74
2023-04-08T16:38:54.811Z,7.71
2023-04-08T16:41:23.348Z,7.68
2023-04-08T16:43:51.681Z,7.64
2023-04-08T16:46:21.075Z,7.62
2023-04-08T16:48:49.319Z,7.59
2023-04-08T16:51:18.818Z,7.55
2023-04-08T16:53:46.913Z,7.52
2023-04-08T16:56:16.418Z,7.49
2023-04-08T16:58:45.551Z,7.46
2023-04-08T17:01:14.223Z,7.43
2023-04-08T17:03:44.803Z,7.39
2023-04-08T17:06:13.785Z,7.36
2023-04-08T17:08:49.147Z,7.33
2023-04-08T17:11:18.033Z,7.31
2023-04-08T17:13:47.153Z,7.29
2023-04-08T17:16:17.460Z,7.26
2023-04-08T17:18:46.917Z,7.24
2023-04-08T17:21:15.726Z,7.21
2023-04-08T17:23:52.201Z,7.16
2023-04-08T17:26:22.328Z,7.13
2023-04-08T17:28:50.561Z,7.11
2023-04-08T17:31:19.213Z,7.09
2023-04-08T17:33:48.006Z,7.07
2023-04-08T17:36:17.630Z,7.04
2023-04-08T17:38:49.334Z,7.02
2023-04-08T17:41:25.100Z,6.98
2023-04-08T17:44:06.760Z,6.95
2023-04-08T17:46:35.567Z,6.93
2023-04-08T17:49:07.361Z,6.90
2023-04-08T17:51:37.273Z,6.88
2023-04-08T17:54:05.963Z,6.85
2023-04-08T17:56:40.021Z,6.78
2023-04-08T17:59:08.233Z,6.72
2023-04-08T18:01:41.467Z,6.68
2023-04-08T18:04:12.457Z,6.66
2023-04-08T18:06:41.209Z,6.66
2023-04-08T18:09:12.270Z,6.66
2023-04-08T18:11:41.416Z,6.67
2023-04-08T18:14:09.812Z,6.67
2023-04-08T18:24:24.447Z,6.67
2023-04-08T18:27:01.500Z,6.67
2023-04-08T18:29:33.324Z,6.65
2023-04-08T18:32:02.297Z,6.63
2023-04-08T18:34:32.147Z,6.58
2023-04-08T18:37:05.104Z,6.53
2023-04-08T18:39:33.374Z,6.46
2023-04-08T18:42:01.634Z,6.37
2023-04-08T18:44:30.544Z,6.30
2023-04-08T18:46:59.168Z,6.22
2023-04-08T18:49:31.004Z,6.13
2023-04-08T18:52:02.901Z,6.05
2023-04-08T18:54:32.187Z,5.98
2023-04-08T18:57:02.855Z,5.91
2023-04-08T18:59:32.732Z,5.85
2023-04-08T19:02:01.515Z,5.82
2023-04-08T19:04:30.815Z,5.80
2023-04-08T19:06:58.918Z,5.76
2023-04-08T19:09:27.015Z,5.72
2023-04-08T19:11:55.454Z,5.69
2023-04-08T19:14:24.800Z,5.68
2023-04-08T19:16:56.888Z,5.67
2023-04-08T19:19:26.121Z,5.69
2023-04-08T19:21:54.226Z,5.72
2023-04-08T19:24:26.847Z,5.73
2023-04-08T19:26:55.498Z,5.71
2023-04-08T19:29:24.591Z,5.68
2023-04-08T19:31:53.817Z,5.65
2023-04-08T19:34:22.008Z,5.61
2023-04-08T19:36:50.830Z,5.57
2023-04-08T19:39:20.018Z,5.56
2023-04-08T19:41:48.102Z,5.55
2023-04-08T19:44:16.639Z,5.52
2023-04-08T19:46:44.842Z,5.51
2023-04-08T19:49:12.881Z,5.50
2023-04-08T19:51:40.967Z,5.51
2023-04-08T19:54:14.226Z,5.53
2023-04-08T19:56:44.133Z,5.54
2023-04-08T19:59:12.423Z,5.53
2023-04-08T20:01:43.086Z,5.51
2023-04-08T20:04:12.091Z,5.48
2023-04-08T20:06:40.517Z,5.43
2023-04-08T20:09:08.731Z,5.38
2023-04-08T20:11:37.288Z,5.31
2023-04-08T20:14:10.008Z,5.26
2023-04-08T20:16:38.258Z,5.23
2023-04-08T20:19:14.032Z,5.22
2023-04-08T20:21:43.400Z,5.22
2023-04-08T20:24:12.752Z,5.21
2023-04-08T20:26:40.912Z,5.23
2023-04-08T20:29:09.513Z,5.20
2023-04-08T20:31:38.056Z,5.14
2023-04-08T20:34:09.583Z,5.10
2023-04-08T20:36:39.859Z,5.08
2023-04-08T20:46:47.901Z,5.04
2023-04-08T20:49:18.823Z,5.00
2023-04-08T20:51:47.217Z,4.99
2023-04-08T20:54:15.900Z,4.98
2023-04-08T20:56:44.503Z,4.97
2023-04-08T20:59:17.394Z,4.97
2023-04-08T21:01:48.130Z,4.97
2023-04-08T21:04:16.749Z,4.97
2023-04-08T21:06:45.354Z,4.95
2023-04-08T21:09:15.002Z,4.91
2023-04-08T21:11:43.753Z,4.88
2023-04-08T21:14:15.858Z,4.85
2023-04-08T21:16:44.086Z,4.83
2023-04-08T21:19:12.907Z,4.81
2023-04-08T21:21:41.927Z,4.79
2023-04-08T21:24:10.764Z,4.76
2023-04-08T21:26:38.915Z,4.75
2023-04-08T21:29:07.181Z,4.76
2023-04-08T21:31:35.718Z,4.78
2023-04-08T21:34:07.242Z,4.82
2023-04-08T21:36:37.475Z,4.85
2023-04-08T21:39:06.314Z,4.86
2023-04-08T21:41:34.658Z,4.87
2023-04-08T21:44:03.701Z,4.89
2023-04-08T21:46:31.847Z,4.89
2023-04-08T21:49:00.835Z,4.90
2023-04-08T21:51:29.239Z,4.89
2023-04-08T21:53:57.303Z,4.87
2023-04-08T21:56:25.687Z,4.81
2023-04-08T21:58:53.880Z,4.71
2023-04-08T22:01:22.125Z,4.62
2023-04-08T22:03:53.800Z,4.52
2023-04-08T22:06:31.479Z,4.43
2023-04-08T22:09:00.880Z,4.32
2023-04-08T22:11:29.121Z,4.23
2023-04-08T22:13:57.650Z,4.13
2023-04-08T22:16:26.324Z,4.01
2023-04-08T22:18:54.963Z,3.89
2023-04-08T22:21:30.130Z,3.77
2023-04-08T22:23:58.902Z,3.66
2023-04-08T22:26:27.675Z,3.57
2023-04-08T22:29:00.222Z,3.49
2023-04-08T22:31:29.602Z,3.41
2023-04-08T22:33:58.600Z,3.35
2023-04-08T22:36:27.312Z,3.28
2023-04-08T22:38:55.590Z,3.23
2023-04-08T22:41:24.601Z,3.16
2023-04-08T22:43:53.700Z,3.09
2023-04-08T22:46:22.248Z,3.03
2023-04-08T22:48:50.918Z,2.97
2023-04-08T22:51:19.290Z,2.89
2023-04-08T22:53:47.450Z,2.81
2023-04-08T22:56:16.088Z,2.73
2023-04-08T22:58:44.145Z,2.65
2023-04-08T23:01:13.758Z,2.59
2023-04-08T23:03:43.799Z,2.54
2023-04-08T23:06:12.268Z,2.47
2023-04-08T23:08:41.777Z,2.40
2023-04-08T23:11:09.941Z,2.35
2023-04-08T23:13:39.364Z,2.31
2023-04-08T23:16:14.174Z,2.27
2023-04-08T23:18:43.163Z,2.22
2023-04-08T23:21:20.369Z,2.18
2023-04-08T23:23:49.348Z,2.12
2023-04-08T23:26:20.964Z,2.07
2023-04-08T23:28:53.921Z,2.01
2023-04-08T23:31:22.276Z,1.95
2023-04-08T23:33:51.028Z,1.90
2023-04-08T23:36:23.001Z,1.86
2023-04-08T23:38:51.780Z,1.82
2023-04-08T23:41:20.703Z,1.78
2023-04-08T23:43:54.135Z,1.73
2023-04-08T23:46:23.340Z,1.70
2023-04-08T23:48:57.483Z,1.66
2023-04-08T23:51:26.705Z,1.64
2023-04-08T23:53:54.777Z,1.62
2023-04-08T23:56:26.351Z,1.60
2023-04-08T23:58:54.653Z,1.57
